sensor_id;sensor_type;location;lat;lon;timestamp;pressure;altitude;pressure_sealevel;temperature;humidity
36062;BME280;22123;52.412;20.970;2022-09-09T00:06:28;100513.25;;;10.76;100.00
36062;BME280;22123;52.412;20.970;2022-09-09T00:11:43;100532.91;;;10.85;100.00
36062;BME280;22123;52.412;20.970;2022-09-09T00:14:18;100531.56;;;10.81;100.00
36062;BME280;22123;52.412;20.970;2022-09-09T00:16:53;100527.00;;;10.82;100.00
36062;BME280;22123;52.412;20.970;2022-09-09T00:20:04;100529.03;;;10.79;100.00
36062;BME280;22123;52.412;20.970;2022-09-09T00:22:16;100522.16;;;10.77;100.00
36062;BME280;22123;52.412;20.970;2022-09-09T00:24:46;100518.63;;;10.76;100.00
36062;BME280;22123;52.412;20.970;2022-09-09T00:29:57;100519.16;;;10.72;100.00
36062;BME280;22123;52.412;20.970;2022-09-09T00:32:28;100511.56;;;10.67;100.00
36062;BME280;22123;52.412;20.970;2022-09-09T00:34:58;100486.72;;;10.49;100.00
36062;BME280;22123;52.412;20.970;2022-09-09T00:37:26;100512.78;;;10.65;100.00
36062;BME280;22123;52.412;20.970;2022-09-09T00:39:54;100514.78;;;10.63;100.00
36062;BME280;22123;52.412;20.970;2022-09-09T00:42:41;100506.22;;;10.59;100.00
36062;BME280;22123;52.412;20.970;2022-09-09T00:47:54;100495.97;;;10.54;100.00
36062;BME280;22123;52.412;20.970;2022-09-09T00:53:12;100511.25;;;10.62;100.00
36062;BME280;22123;52.412;20.970;2022-09-09T00:56:16;100505.69;;;10.64;100.00
36062;BME280;22123;52.412;20.970;2022-09-09T01:01:37;100500.47;;;10.62;100.00
36062;BME280;22123;52.412;20.970;2022-09-09T01:04:09;100495.78;;;10.56;100.00
36062;BME280;22123;52.412;20.970;2022-09-09T01:06:41;100500.66;;;10.60;100.00
36062;BME280;22123;52.412;20.970;2022-09-09T01:09:13;100505.00;;;10.61;100.00
36062;BME280;22123;52.412;20.970;2022-09-09T01:17:30;100502.31;;;10.70;100.00
36062;BME280;22123;52.412;20.970;2022-09-09T01:28:40;100507.50;;;10.71;100.00
36062;BME280;22123;52.412;20.970;2022-09-09T01:31:09;100505.16;;;10.68;100.00
36062;BME280;22123;52.412;20.970;2022-09-09T01:33:36;100493.06;;;10.64;100.00
36062;BME280;22123;52.412;20.970;2022-09-09T01:36:08;100502.81;;;10.73;100.00
36062;BME280;22123;52.412;20.970;2022-09-09T01:38:35;100499.94;;;10.75;100.00
36062;BME280;22123;52.412;20.970;2022-09-09T01:41:01;100504.47;;;10.74;100.00
36062;BME280;22123;52.412;20.970;2022-09-09T01:43:27;100481.63;;;10.70;100.00
36062;BME280;22123;52.412;20.970;2022-09-09T01:45:55;100498.09;;;10.75;100.00
36062;BME280;22123;52.412;20.970;2022-09-09T01:48:24;100492.22;;;10.72;100.00
36062;BME280;22123;52.412;20.970;2022-09-09T01:50:51;100483.28;;;10.71;100.00
36062;BME280;22123;52.412;20.970;2022-09-09T01:53:18;100482.94;;;10.74;100.00
36062;BME280;22123;52.412;20.970;2022-09-09T01:55:53;100486.78;;;10.80;100.00
36062;BME280;22123;52.412;20.970;2022-09-09T02:01:19;100488.81;;;10.78;100.00
36062;BME280;22123;52.412;20.970;2022-09-09T02:03:54;100479.94;;;10.69;100.00
36062;BME280;22123;52.412;20.970;2022-09-09T02:06:30;100483.97;;;10.73;100.00
36062;BME280;22123;52.412;20.970;2022-09-09T02:09:01;100484.44;;;10.77;100.00
36062;BME280;22123;52.412;20.970;2022-09-09T02:11:29;100490.00;;;10.75;100.00
36062;BME280;22123;52.412;20.970;2022-09-09T02:14:00;100487.13;;;10.77;100.00
36062;BME280;22123;52.412;20.970;2022-09-09T02:19:21;100493.34;;;10.77;100.00
36062;BME280;22123;52.412;20.970;2022-09-09T02:21:52;100491.34;;;10.71;100.00
36062;BME280;22123;52.412;20.970;2022-09-09T02:24:19;100482.94;;;10.74;100.00
36062;BME280;22123;52.412;20.970;2022-09-09T02:26:46;100489.31;;;10.82;100.00
36062;BME280;22123;52.412;20.970;2022-09-09T02:29:20;100482.91;;;10.83;100.00
36062;BME280;22123;52.412;20.970;2022-09-09T02:31:47;100479.22;;;10.84;100.00
36062;BME280;22123;52.412;20.970;2022-09-09T02:34:17;100469.44;;;10.83;100.00
36062;BME280;22123;52.412;20.970;2022-09-09T02:36:45;100470.78;;;10.87;100.00
36062;BME280;22123;52.412;20.970;2022-09-09T02:39:13;100472.78;;;10.85;100.00
36062;BME280;22123;52.412;20.970;2022-09-09T02:41:41;100468.94;;;10.87;100.00
36062;BME280;22123;52.412;20.970;2022-09-09T02:44:12;100479.34;;;10.90;100.00
36062;BME280;22123;52.412;20.970;2022-09-09T02:52:08;100483.72;;;10.91;100.00
36062;BME280;22123;52.412;20.970;2022-09-09T02:54:39;100477.69;;;10.89;100.00
36062;BME280;22123;52.412;20.970;2022-09-09T02:57:16;100488.75;;;10.94;100.00
36062;BME280;22123;52.412;20.970;2022-09-09T02:59:44;100490.63;;;10.94;100.00
36062;BME280;22123;52.412;20.970;2022-09-09T03:02:10;100490.81;;;10.92;100.00
36062;BME280;22123;52.412;20.970;2022-09-09T03:04:37;100491.28;;;10.96;100.00
36062;BME280;22123;52.412;20.970;2022-09-09T03:07:03;100497.53;;;10.96;100.00
36062;BME280;22123;52.412;20.970;2022-09-09T03:09:29;100488.75;;;10.94;100.00
36062;BME280;22123;52.412;20.970;2022-09-09T03:11:55;100499.19;;;10.98;100.00
36062;BME280;22123;52.412;20.970;2022-09-09T03:14:21;100490.63;;;10.94;100.00
36062;BME280;22123;52.412;20.970;2022-09-09T03:16:50;100484.56;;;10.92;100.00
36062;BME280;22123;52.412;20.970;2022-09-09T03:19:15;100490.28;;;10.97;100.00
36062;BME280;22123;52.412;20.970;2022-09-09T03:21:41;100480.03;;;10.92;100.00
36062;BME280;22123;52.412;20.970;2022-09-09T03:24:06;100485.25;;;10.94;100.00
36062;BME280;22123;52.412;20.970;2022-09-09T03:26:32;100482.38;;;10.95;100.00
36062;BME280;22123;52.412;20.970;2022-09-09T03:28:58;100471.78;;;10.94;100.00
36062;BME280;22123;52.412;20.970;2022-09-09T03:31:25;100469.91;;;10.94;100.00
36062;BME280;22123;52.412;20.970;2022-09-09T03:33:51;100474.47;;;10.94;100.00
36062;BME280;22123;52.412;20.970;2022-09-09T03:36:17;100480.16;;;10.99;100.00
36062;BME280;22123;52.412;20.970;2022-09-09T03:38:42;100474.94;;;10.98;100.00
36062;BME280;22123;52.412;20.970;2022-09-09T03:41:07;100460.50;;;10.90;100.00
36062;BME280;22123;52.412;20.970;2022-09-09T03:43:33;100477.97;;;11.03;100.00
36062;BME280;22123;52.412;20.970;2022-09-09T03:45:59;100476.09;;;11.03;100.00
36062;BME280;22123;52.412;20.970;2022-09-09T03:48:25;100480.47;;;11.04;100.00
36062;BME280;22123;52.412;20.970;2022-09-09T03:50:53;100475.91;;;11.05;100.00
36062;BME280;22123;52.412;20.970;2022-09-09T03:53:21;100480.94;;;11.08;100.00
36062;BME280;22123;52.412;20.970;2022-09-09T03:55:50;100480.94;;;11.08;100.00
36062;BME280;22123;52.412;20.970;2022-09-09T03:58:18;100470.72;;;11.03;100.00
36062;BME280;22123;52.412;20.970;2022-09-09T04:00:53;100469.19;;;11.01;100.00
36062;BME280;22123;52.412;20.970;2022-09-09T04:03:18;100477.78;;;11.04;100.00
36062;BME280;22123;52.412;20.970;2022-09-09T04:05:44;100483.00;;;11.06;100.00
36062;BME280;22123;52.412;20.970;2022-09-09T04:08:09;100484.88;;;11.05;100.00
36062;BME280;22123;52.412;20.970;2022-09-09T04:10:36;100473.75;;;11.00;100.00
36062;BME280;22123;52.412;20.970;2022-09-09T04:13:03;100489.41;;;11.05;100.00
36062;BME280;22123;52.412;20.970;2022-09-09T04:15:29;100488.38;;;11.06;100.00
36062;BME280;22123;52.412;20.970;2022-09-09T04:17:55;100480.47;;;11.04;100.00
36062;BME280;22123;52.412;20.970;2022-09-09T04:20:20;100486.19;;;11.09;100.00
36062;BME280;22123;52.412;20.970;2022-09-09T04:22:47;100486.03;;;11.11;100.00
36062;BME280;22123;52.412;20.970;2022-09-09T04:25:12;100483.66;;;11.08;100.00
36062;BME280;22123;52.412;20.970;2022-09-09T04:27:38;100462.63;;;11.03;100.00
36062;BME280;22123;52.412;20.970;2022-09-09T04:30:04;100471.69;;;11.10;100.00
36062;BME280;22123;52.412;20.970;2022-09-09T04:32:32;100470.69;;;11.11;100.00
36062;BME280;22123;52.412;20.970;2022-09-09T04:34:58;100467.47;;;11.08;100.00
36062;BME280;22123;52.412;20.970;2022-09-09T04:37:23;100472.03;;;11.07;100.00
36062;BME280;22123;52.412;20.970;2022-09-09T04:39:50;100477.75;;;11.12;100.00
36062;BME280;22123;52.412;20.970;2022-09-09T04:42:16;100469.53;;;11.06;100.00
36062;BME280;22123;52.412;20.970;2022-09-09T04:44:42;100471.16;;;11.15;100.00
36062;BME280;22123;52.412;20.970;2022-09-09T04:47:08;100454.53;;;11.03;100.00
36062;BME280;22123;52.412;20.970;2022-09-09T04:49:34;100470.69;;;11.11;100.00
36062;BME280;22123;52.412;20.970;2022-09-09T04:52:01;100481.09;;;11.14;100.00
36062;BME280;22123;52.412;20.970;2022-09-09T04:54:26;100488.84;;;11.18;100.00
36062;BME280;22123;52.412;20.970;2022-09-09T04:56:53;100496.75;;;11.19;100.00
36062;BME280;22123;52.412;20.970;2022-09-09T04:59:20;100493.03;;;11.20;100.00
36062;BME280;22123;52.412;20.970;2022-09-09T05:01:45;100478.59;;;11.13;100.00
36062;BME280;22123;52.412;20.970;2022-09-09T05:04:11;100496.38;;;11.22;100.00
36062;BME280;22123;52.412;20.970;2022-09-09T05:06:36;100490.34;;;11.20;100.00
36062;BME280;22123;52.412;20.970;2022-09-09T05:09:02;100489.88;;;11.17;100.00
36062;BME280;22123;52.412;20.970;2022-09-09T05:11:30;100499.25;;;11.21;100.00
36062;BME280;22123;52.412;20.970;2022-09-09T05:13:56;100486.84;;;11.11;100.00
36062;BME280;22123;52.412;20.970;2022-09-09T05:16:22;100496.75;;;11.19;100.00
36062;BME280;22123;52.412;20.970;2022-09-09T05:18:48;100494.22;;;11.18;100.00
36062;BME280;22123;52.412;20.970;2022-09-09T05:21:15;100498.25;;;11.22;100.00
36062;BME280;22123;52.412;20.970;2022-09-09T05:23:40;100494.38;;;11.24;100.00
36062;BME280;22123;52.412;20.970;2022-09-09T05:26:08;100491.84;;;11.23;100.00
36062;BME280;22123;52.412;20.970;2022-09-09T05:28:34;100492.22;;;11.20;100.00
36062;BME280;22123;52.412;20.970;2022-09-09T05:31:06;100488.19;;;11.16;100.00
36062;BME280;22123;52.412;20.970;2022-09-09T05:33:34;100483.81;;;11.14;100.00
36062;BME280;22123;52.412;20.970;2022-09-09T05:38:28;100494.56;;;11.23;100.00
36062;BME280;22123;52.412;20.970;2022-09-09T05:40:55;100503.97;;;11.27;100.00
36062;BME280;22123;52.412;20.970;2022-09-09T05:43:21;100496.38;;;11.22;100.00
36062;BME280;22123;52.412;20.970;2022-09-09T05:45:48;100506.47;;;11.28;100.00
36062;BME280;22123;52.412;20.970;2022-09-09T05:48:17;100499.41;;;11.27;100.00
36062;BME280;22123;52.412;20.970;2022-09-09T05:50:43;100499.22;;;11.29;100.00
36062;BME280;22123;52.412;20.970;2022-09-09T05:53:09;100499.88;;;11.31;100.00
36062;BME280;22123;52.412;20.970;2022-09-09T05:55:35;100493.66;;;11.30;100.00
36062;BME280;22123;52.412;20.970;2022-09-09T05:58:01;100493.19;;;11.27;100.00
36062;BME280;22123;52.412;20.970;2022-09-09T06:00:26;100484.13;;;11.20;100.00
36062;BME280;22123;52.412;20.970;2022-09-09T06:02:52;100485.59;;;11.22;100.00
36062;BME280;22123;52.412;20.970;2022-09-09T06:05:19;100495.69;;;11.28;100.00
36062;BME280;22123;52.412;20.970;2022-09-09T06:07:44;100501.56;;;11.32;100.00
36062;BME280;22123;52.412;20.970;2022-09-09T06:10:11;100504.59;;;11.37;100.00
36062;BME280;22123;52.412;20.970;2022-09-09T06:12:39;100499.56;;;11.34;100.00
36062;BME280;22123;52.412;20.970;2022-09-09T06:15:04;100488.63;;;11.27;100.00
36062;BME280;22123;52.412;20.970;2022-09-09T06:17:30;100510.44;;;11.41;100.00
36062;BME280;22123;52.412;20.970;2022-09-09T06:19:55;100502.91;;;11.36;100.00
36062;BME280;22123;52.412;20.970;2022-09-09T06:22:21;100514.00;;;11.41;100.00
36062;BME280;22123;52.412;20.970;2022-09-09T06:24:46;100523.56;;;11.44;100.00
36062;BME280;22123;52.412;20.970;2022-09-09T06:27:12;100527.94;;;11.45;100.00
36062;BME280;22123;52.412;20.970;2022-09-09T06:29:38;100518.53;;;11.41;100.00
36062;BME280;22123;52.412;20.970;2022-09-09T06:32:04;100516.19;;;11.38;100.00
36062;BME280;22123;52.412;20.970;2022-09-09T06:34:29;100509.97;;;11.37;100.00
36062;BME280;22123;52.412;20.970;2022-09-09T06:36:55;100517.72;;;11.40;100.00
36062;BME280;22123;52.412;20.970;2022-09-09T06:39:23;100527.78;;;11.46;100.00
36062;BME280;22123;52.412;20.970;2022-09-09T06:41:48;100508.28;;;11.36;100.00
36062;BME280;22123;52.412;20.970;2022-09-09T06:44:15;100513.66;;;11.44;100.00
36062;BME280;22123;52.412;20.970;2022-09-09T06:46:41;100520.19;;;11.50;100.00
36062;BME280;22123;52.412;20.970;2022-09-09T06:49:08;100523.06;;;11.48;100.00
36062;BME280;22123;52.412;20.970;2022-09-09T06:51:35;100531.94;;;11.57;100.00
36062;BME280;22123;52.412;20.970;2022-09-09T06:54:02;100529.25;;;11.57;100.00
36062;BME280;22123;52.412;20.970;2022-09-09T06:56:34;100521.81;;;11.59;100.00
36062;BME280;22123;52.412;20.970;2022-09-09T06:59:02;100537.09;;;11.67;100.00
36062;BME280;22123;52.412;20.970;2022-09-09T07:01:31;100534.22;;;11.69;100.00
36062;BME280;22123;52.412;20.970;2022-09-09T07:03:58;100549.03;;;11.73;100.00
36062;BME280;22123;52.412;20.970;2022-09-09T07:06:31;100533.72;;;11.73;100.00
36062;BME280;22123;52.412;20.970;2022-09-09T07:08:59;100533.72;;;11.73;100.00
36062;BME280;22123;52.412;20.970;2022-09-09T07:11:30;100534.41;;;11.67;100.00
36062;BME280;22123;52.412;20.970;2022-09-09T07:14:00;100518.41;;;11.65;100.00
36062;BME280;22123;52.412;20.970;2022-09-09T07:16:26;100550.91;;;11.72;100.00
36062;BME280;22123;52.412;20.970;2022-09-09T07:18:53;100538.41;;;11.71;100.00
36062;BME280;22123;52.412;20.970;2022-09-09T07:21:23;100547.84;;;11.75;100.00
36062;BME280;22123;52.412;20.970;2022-09-09T07:23:49;100532.56;;;11.68;100.00
36062;BME280;22123;52.412;20.970;2022-09-09T07:26:20;100543.94;;;11.78;100.00
36062;BME280;22123;52.412;20.970;2022-09-09T07:28:46;100540.25;;;11.79;100.00
36062;BME280;22123;52.412;20.970;2022-09-09T07:31:24;100554.03;;;11.84;100.00
36062;BME280;22123;52.412;20.970;2022-09-09T07:33:49;100541.25;;;11.78;100.00
36062;BME280;22123;52.412;20.970;2022-09-09T07:36:20;100556.44;;;11.79;100.00
36062;BME280;22123;52.412;20.970;2022-09-09T07:38:51;100551.69;;;11.81;100.00
36062;BME280;22123;52.412;20.970;2022-09-09T07:41:23;100560.59;;;11.81;100.00
36062;BME280;22123;52.412;20.970;2022-09-09T07:43:50;100553.06;;;11.77;100.00
36062;BME280;22123;52.412;20.970;2022-09-09T07:46:18;100554.91;;;11.76;100.00
36062;BME280;22123;52.412;20.970;2022-09-09T07:48:49;100564.81;;;11.84;100.00
36062;BME280;22123;52.412;20.970;2022-09-09T07:51:17;100562.13;;;11.84;100.00
36062;BME280;22123;52.412;20.970;2022-09-09T07:53:44;100546.09;;;11.82;100.00
36062;BME280;22123;52.412;20.970;2022-09-09T07:56:12;100555.72;;;11.85;100.00
36062;BME280;22123;52.412;20.970;2022-09-09T07:58:40;100553.84;;;11.86;100.00
36062;BME280;22123;52.412;20.970;2022-09-09T08:01:14;100569.16;;;11.93;100.00
36062;BME280;22123;52.412;20.970;2022-09-09T08:03:41;100556.00;;;11.90;100.00
36062;BME280;22123;52.412;20.970;2022-09-09T08:06:08;100576.56;;;11.99;100.00
36062;BME280;22123;52.412;20.970;2022-09-09T08:08:35;100571.81;;;12.02;100.00
36062;BME280;22123;52.412;20.970;2022-09-09T08:11:07;100570.25;;;12.07;100.00
36062;BME280;22123;52.412;20.970;2022-09-09T08:13:34;100565.22;;;12.04;100.00
36062;BME280;22123;52.412;20.970;2022-09-09T08:16:12;100584.25;;;12.11;100.00
36062;BME280;22123;52.412;20.970;2022-09-09T08:18:38;100563.66;;;12.10;100.00
36062;BME280;22123;52.412;20.970;2022-09-09T08:21:25;100583.50;;;12.17;100.00
36062;BME280;22123;52.412;20.970;2022-09-09T08:23:54;100573.91;;;12.14;100.00
36062;BME280;22123;52.412;20.970;2022-09-09T08:26:24;100589.09;;;12.15;100.00
36062;BME280;22123;52.412;20.970;2022-09-09T08:28:51;100589.94;;;12.16;100.00
36062;BME280;22123;52.412;20.970;2022-09-09T08:33:49;100586.59;;;12.14;100.00
36062;BME280;22123;52.412;20.970;2022-09-09T08:36:17;100591.47;;;12.10;100.00
36062;BME280;22123;52.412;20.970;2022-09-09T08:38:43;100593.63;;;12.15;100.00
36062;BME280;22123;52.412;20.970;2022-09-09T08:41:42;100596.34;;;12.15;100.00
36062;BME280;22123;52.412;20.970;2022-09-09T08:52:17;100597.84;;;12.17;100.00
36062;BME280;22123;52.412;20.970;2022-09-09T08:54:44;100598.84;;;12.16;100.00
36062;BME280;22123;52.412;20.970;2022-09-09T08:57:20;100600.72;;;12.16;100.00
36062;BME280;22123;52.412;20.970;2022-09-09T08:59:47;100603.38;;;12.24;100.00
36062;BME280;22123;52.412;20.970;2022-09-09T09:02:41;100596.81;;;12.18;100.00
36062;BME280;22123;52.412;20.970;2022-09-09T09:05:19;100605.88;;;12.26;100.00
36062;BME280;22123;52.412;20.970;2022-09-09T09:13:17;100606.47;;;12.36;100.00
36062;BME280;22123;52.412;20.970;2022-09-09T09:15:44;100605.47;;;12.37;100.00
36062;BME280;22123;52.412;20.970;2022-09-09T09:18:13;100600.44;;;12.34;100.00
36062;BME280;22123;52.412;20.970;2022-09-09T09:23:20;100609.31;;;12.43;100.00
36062;BME280;22123;52.412;20.970;2022-09-09T09:25:47;100605.09;;;12.40;100.00
36062;BME280;22123;52.412;20.970;2022-09-09T09:28:24;100614.34;;;12.46;100.00
36062;BME280;22123;52.412;20.970;2022-09-09T09:30:57;100614.81;;;12.49;100.00
36062;BME280;22123;52.412;20.970;2022-09-09T09:35:54;100602.16;;;12.50;100.00
36062;BME280;22123;52.412;20.970;2022-09-09T09:38:24;100602.75;;;12.60;100.00
36062;BME280;22123;52.412;20.970;2022-09-09T09:40:56;100606.94;;;12.63;100.00
36062;BME280;22123;52.412;20.970;2022-09-09T09:45:52;100621.94;;;12.65;100.00
36062;BME280;22123;52.412;20.970;2022-09-09T09:48:18;100615.03;;;12.63;100.00
36062;BME280;22123;52.412;20.970;2022-09-09T09:50:52;100622.31;;;12.62;100.00
36062;BME280;22123;52.412;20.970;2022-09-09T09:53:22;100611.38;;;12.56;100.00
36062;BME280;22123;52.412;20.970;2022-09-09T09:56:05;100627.53;;;12.64;100.00
36062;BME280;22123;52.412;20.970;2022-09-09T09:58:33;100628.53;;;12.63;100.00
36062;BME280;22123;52.412;20.970;2022-09-09T10:01:04;100619.13;;;12.59;100.00
36062;BME280;22123;52.412;20.970;2022-09-09T10:03:32;100628.72;;;12.61;100.00
36062;BME280;22123;52.412;20.970;2022-09-09T10:05:57;100626.88;;;12.62;100.00
36062;BME280;22123;52.412;20.970;2022-09-09T10:08:26;100637.31;;;12.65;100.00
36062;BME280;22123;52.412;20.970;2022-09-09T10:19:35;100639.34;;;12.63;100.00
36062;BME280;22123;52.412;20.970;2022-09-09T10:30:18;100652.31;;;12.67;100.00
36062;BME280;22123;52.412;20.970;2022-09-09T10:32:57;100653.63;;;12.72;100.00
36062;BME280;22123;52.412;20.970;2022-09-09T10:41:03;100664.44;;;12.72;100.00
36062;BME280;22123;52.412;20.970;2022-09-09T10:43:40;100664.59;;;12.70;100.00
36062;BME280;22123;52.412;20.970;2022-09-09T10:51:56;100666.19;;;12.64;100.00
36062;BME280;22123;52.412;20.970;2022-09-09T10:57:41;100678.22;;;12.77;100.00
36062;BME280;22123;52.412;20.970;2022-09-09T11:00:20;100682.44;;;12.79;100.00
36062;BME280;22123;52.412;20.970;2022-09-09T11:03:04;100682.81;;;12.76;100.00
36062;BME280;22123;52.412;20.970;2022-09-09T11:05:43;100684.47;;;12.77;100.00
36062;BME280;22123;52.412;20.970;2022-09-09T11:08:14;100687.66;;;12.81;100.00
36062;BME280;22123;52.412;20.970;2022-09-09T11:13:35;100692.75;;;12.76;100.00
36062;BME280;22123;52.412;20.970;2022-09-09T11:19:03;100688.56;;;12.73;100.00
36062;BME280;22123;52.412;20.970;2022-09-09T11:21:43;100695.16;;;12.70;100.00
36062;BME280;22123;52.412;20.970;2022-09-09T11:24:17;100693.97;;;12.73;100.00
36062;BME280;22123;52.412;20.970;2022-09-09T11:26:51;100706.56;;;12.81;100.00
36062;BME280;22123;52.412;20.970;2022-09-09T11:42:24;100700.06;;;12.90;100.00
36062;BME280;22123;52.412;20.970;2022-09-09T11:44:50;100702.13;;;12.88;100.00
36062;BME280;22123;52.412;20.970;2022-09-09T11:49:46;100698.59;;;12.87;100.00
36062;BME280;22123;52.412;20.970;2022-09-09T11:55:27;100700.56;;;12.94;100.00
36062;BME280;22123;52.412;20.970;2022-09-09T11:58:03;100697.66;;;12.95;100.00
36062;BME280;22123;52.412;20.970;2022-09-09T12:00:41;100679.59;;;12.96;100.00
36062;BME280;22123;52.412;20.970;2022-09-09T12:03:40;100684.09;;;13.03;100.00
36062;BME280;22123;52.412;20.970;2022-09-09T12:08:43;100690.88;;;12.99;100.00
36062;BME280;22123;52.412;20.970;2022-09-09T12:11:10;100709.25;;;13.04;100.00
36062;BME280;22123;52.412;20.970;2022-09-09T12:13:36;100696.47;;;12.98;100.00
36062;BME280;22123;52.412;20.970;2022-09-09T12:16:02;100686.88;;;12.95;100.00
36062;BME280;22123;52.412;20.970;2022-09-09T12:18:35;100706.25;;;12.99;100.00
36062;BME280;22123;52.412;20.970;2022-09-09T12:23:47;100708.56;;;13.02;100.00
36062;BME280;22123;52.412;20.970;2022-09-09T12:29:38;100704.75;;;12.96;100.00
36062;BME280;22123;52.412;20.970;2022-09-09T12:32:14;100699.69;;;12.93;100.00
36062;BME280;22123;52.412;20.970;2022-09-09T12:34:47;100706.41;;;12.97;100.00
36062;BME280;22123;52.412;20.970;2022-09-09T12:37:36;100705.97;;;12.94;100.00
36062;BME280;22123;52.412;20.970;2022-09-09T12:40:21;100711.38;;;12.94;100.00
36062;BME280;22123;52.412;20.970;2022-09-09T12:42:46;100712.19;;;12.94;100.00
36062;BME280;22123;52.412;20.970;2022-09-09T12:45:26;100719.38;;;13.02;100.00
36062;BME280;22123;52.412;20.970;2022-09-09T12:47:56;100718.19;;;13.04;100.00
36062;BME280;22123;52.412;20.970;2022-09-09T12:50:25;100719.38;;;13.02;100.00
36062;BME280;22123;52.412;20.970;2022-09-09T12:52:54;100720.34;;;13.09;100.00
36062;BME280;22123;52.412;20.970;2022-09-09T12:55:48;100718.00;;;13.06;100.00
36062;BME280;22123;52.412;20.970;2022-09-09T12:58:13;100712.13;;;13.02;100.00
36062;BME280;22123;52.412;20.970;2022-09-09T13:00:49;100715.03;;;13.01;100.00
36062;BME280;22123;52.412;20.970;2022-09-09T13:03:18;100709.63;;;13.01;100.00
36062;BME280;22123;52.412;20.970;2022-09-09T13:05:45;100698.13;;;12.99;100.00
36062;BME280;22123;52.412;20.970;2022-09-09T13:08:13;100691.44;;;12.95;100.00
36062;BME280;22123;52.412;20.970;2022-09-09T13:10:47;100698.31;;;12.97;100.00
36062;BME280;22123;52.412;20.970;2022-09-09T13:13:19;100688.88;;;12.93;100.00
36062;BME280;22123;52.412;20.970;2022-09-09T13:15:51;100704.03;;;13.02;100.00
36062;BME280;22123;52.412;20.970;2022-09-09T13:18:23;100687.31;;;12.99;100.00
36062;BME280;22123;52.412;20.970;2022-09-09T13:20:50;100707.50;;;13.11;100.00
36062;BME280;22123;52.412;20.970;2022-09-09T13:23:18;100689.78;;;13.09;100.00
36062;BME280;22123;52.412;20.970;2022-09-09T13:25:58;100696.81;;;13.18;100.00
36062;BME280;22123;52.412;20.970;2022-09-09T13:28:27;100694.09;;;13.18;100.00
36062;BME280;22123;52.412;20.970;2022-09-09T13:36:04;100692.22;;;13.18;100.00
36062;BME280;22123;52.412;20.970;2022-09-09T13:38:33;100681.97;;;13.14;100.00
36062;BME280;22123;52.412;20.970;2022-09-09T13:41:05;100696.31;;;13.14;100.00
36062;BME280;22123;52.412;20.970;2022-09-09T13:43:35;100686.50;;;13.13;100.00
36062;BME280;22123;52.412;20.970;2022-09-09T13:46:26;100690.78;;;13.08;100.00
36062;BME280;22123;52.412;20.970;2022-09-09T13:48:56;100679.72;;;13.02;100.00
36062;BME280;22123;52.412;20.970;2022-09-09T13:51:33;100678.19;;;13.00;100.00
36062;BME280;22123;52.412;20.970;2022-09-09T13:53:59;100689.13;;;13.07;100.00
36062;BME280;22123;52.412;20.970;2022-09-09T13:56:25;100687.06;;;13.09;100.00
36062;BME280;22123;52.412;20.970;2022-09-09T13:58:51;100689.59;;;13.10;100.00
36062;BME280;22123;52.412;20.970;2022-09-09T14:01:16;100693.97;;;13.11;100.00
36062;BME280;22123;52.412;20.970;2022-09-09T14:03:42;100688.75;;;13.10;100.00
36062;BME280;22123;52.412;20.970;2022-09-09T14:06:09;100688.94;;;13.08;100.00
36062;BME280;22123;52.412;20.970;2022-09-09T14:08:35;100695.38;;;13.07;100.00
36062;BME280;22123;52.412;20.970;2022-09-09T14:11:03;100707.88;;;13.08;100.00
36062;BME280;22123;52.412;20.970;2022-09-09T14:13:29;100706.81;;;13.09;100.00
36062;BME280;22123;52.412;20.970;2022-09-09T14:15:54;100713.91;;;13.10;100.00
36062;BME280;22123;52.412;20.970;2022-09-09T14:18:19;100693.78;;;12.98;100.00
36062;BME280;22123;52.412;20.970;2022-09-09T14:20:47;100710.75;;;13.07;100.00
36062;BME280;22123;52.412;20.970;2022-09-09T14:23:13;100708.56;;;13.02;100.00
36062;BME280;22123;52.412;20.970;2022-09-09T14:25:40;100722.56;;;13.05;100.00
36062;BME280;22123;52.412;20.970;2022-09-09T14:28:08;100702.72;;;12.98;100.00
36062;BME280;22123;52.412;20.970;2022-09-09T14:30:34;100712.13;;;13.02;100.00
36062;BME280;22123;52.412;20.970;2022-09-09T14:32:59;100715.97;;;13.08;100.00
36062;BME280;22123;52.412;20.970;2022-09-09T14:35:25;100699.63;;;13.01;100.00
36062;BME280;22123;52.412;20.970;2022-09-09T14:37:50;100710.56;;;13.08;100.00
36062;BME280;22123;52.412;20.970;2022-09-09T14:40:16;100721.66;;;13.13;100.00
36062;BME280;22123;52.412;20.970;2022-09-09T14:42:42;100704.50;;;13.06;100.00
36062;BME280;22123;52.412;20.970;2022-09-09T14:45:07;100711.69;;;13.14;100.00
36062;BME280;22123;52.412;20.970;2022-09-09T14:47:33;100708.44;;;13.18;100.00
36062;BME280;22123;52.412;20.970;2022-09-09T14:49:58;100707.69;;;13.25;100.00
36062;BME280;22123;52.412;20.970;2022-09-09T14:52:26;100708.06;;;13.21;100.00
36062;BME280;22123;52.412;20.970;2022-09-09T14:54:51;100703.31;;;13.23;100.00
36062;BME280;22123;52.412;20.970;2022-09-09T14:57:16;100691.56;;;13.16;100.00
36062;BME280;22123;52.412;20.970;2022-09-09T14:59:42;100704.34;;;13.22;100.00
36062;BME280;22123;52.412;20.970;2022-09-09T15:02:08;100706.69;;;13.26;100.00